Time;durP1;ratioP1;P1;durP2;ratioP2;P2;SDS_P1;SDS_P2;PMS_P1;PMS_P2;Temp;Humidity;BMP_temperature;BMP_pressure;BME280_temperature;BME280_humidity;BME280_pressure;Samples;Min_cycle;Max_cycle;Signal;HPM_P1;HPM_P2
2023/06/01 00:01:04;;;;;;;;;;;;;;;-140.72;100.00;52583.63;6224681;23;19991;-71
2023/06/01 00:03:29;;;;;;;;;;;;;;;-140.72;100.00;52545.06;6223219;23;19969;-72
2023/06/01 00:05:55;;;;;;;;;;;;;;;-140.72;100.00;52545.06;6220600;23;19912;-72
2023/06/01 00:08:22;;;;;;;;;;;;;;;-140.72;100.00;52545.06;6246536;23;19919;-72
2023/06/01 00:10:47;;;;;;;;;;;;;;;-140.72;100.00;52569.44;6219768;23;19911;-71
2023/06/01 00:13:13;;;;;;;;;;;;;;;-140.72;100.00;52575.50;6218850;23;19916;-72
2023/06/01 00:15:38;;;;;;;;;;;;;;;-140.72;100.00;52528.84;6245350;23;19922;-72
2023/06/01 00:18:05;;;;;;;;;;;;;;;-140.72;100.00;52565.38;6218798;23;19919;-72
2023/06/01 00:20:32;;;;;;;;;;;;;;;-140.72;100.00;52569.44;6219480;23;19930;-72
2023/06/01 00:22:59;;;;;;;;;;;;;;;-140.72;100.00;52545.06;6219909;23;20339;-72
2023/06/01 00:25:24;;;;;;;;;;;;;;;-140.72;100.00;52569.44;6245943;23;19987;-71
2023/06/01 00:27:49;;;;;;;;;;;;;;;-140.72;100.00;52553.19;6218373;23;20350;-72
2023/06/01 00:30:15;;;;;;;;;;;;;;;-140.72;100.00;52567.41;6218409;23;19912;-72
2023/06/01 00:32:40;;;;;;;;;;;;;;;-140.72;100.00;52585.66;6218206;23;19911;-72
2023/06/01 00:35:05;;;;;;;;;;;;;;;-140.72;100.00;52575.50;6218647;23;19942;-72
2023/06/01 00:37:31;;;;;;;;;;;;;;;-140.72;100.00;52573.50;6245289;22;19911;-72
2023/06/01 00:39:56;;;;;;;;;;;;;;;-140.72;100.00;52555.22;6217869;23;20220;-71
2023/06/01 00:42:36;;;;;;;;;;;;;;;-140.72;100.00;52561.31;6217760;23;19918;-72
2023/06/01 00:45:02;;;;;;;;;;;;;;;-140.72;100.00;52589.72;6252257;23;19911;-72
2023/06/01 00:47:27;;;;;;;;;;;;;;;-140.72;100.00;52563.34;6218684;23;19911;-72
2023/06/01 00:49:52;;;;;;;;;;;;;;;-140.72;100.00;52563.34;6245105;23;19939;-72
2023/06/01 00:52:18;;;;;;;;;;;;;;;-140.72;100.00;52587.69;6217812;23;19994;-72
2023/06/01 00:54:43;;;;;;;;;;;;;;;-140.72;100.00;52567.41;6218120;23;20231;-71
2023/06/01 00:57:08;;;;;;;;;;;;;;;-140.72;100.00;52591.75;6217683;23;19912;-72
2023/06/01 00:59:34;;;;;;;;;;;;;;;-140.72;100.00;52585.66;6245653;23;19965;-72
2023/06/01 01:02:00;;;;;;;;;;;;;;;-140.72;100.00;52577.53;6245094;23;20373;-72
2023/06/01 01:04:28;;;;;;;;;;;;;;;-140.72;100.00;52557.25;6244331;23;19911;-72
2023/06/01 01:06:56;;;;;;;;;;;;;;;-140.72;100.00;52545.06;6244434;23;19955;-72
2023/06/01 01:09:44;;;;;;;;;;;;;;;-140.72;100.00;52593.78;6244640;23;19993;-72
2023/06/01 01:12:17;;;;;;;;;;;;;;;-140.72;100.00;52551.16;6217685;23;20284;-72
2023/06/01 01:15:01;;;;;;;;;;;;;;;-140.72;100.00;52599.88;6245158;23;19920;-72
2023/06/01 01:17:32;;;;;;;;;;;;;;;-140.72;100.00;52553.19;6217653;23;20216;-72
2023/06/01 01:20:10;;;;;;;;;;;;;;;-140.72;100.00;52575.50;6217368;23;19912;-72
2023/06/01 01:23:05;;;;;;;;;;;;;;;-140.72;100.00;52571.47;6217421;23;20264;-72
2023/06/01 01:25:52;;;;;;;;;;;;;;;-140.72;100.00;52551.16;6244780;23;19918;-72
2023/06/01 01:28:33;;;;;;;;;;;;;;;-140.72;100.00;52589.72;6244511;23;19918;-72
2023/06/01 01:30:59;;;;;;;;;;;;;;;-140.72;100.00;52597.84;6217486;23;19911;-73
2023/06/01 01:33:37;;;;;;;;;;;;;;;-140.72;100.00;52569.44;6216028;23;19912;-72
2023/06/01 01:36:03;;;;;;;;;;;;;;;-140.72;100.00;52585.66;6244840;23;19923;-72
2023/06/01 01:38:29;;;;;;;;;;;;;;;-140.72;100.00;52534.94;6217641;23;19925;-72
2023/06/01 01:40:58;;;;;;;;;;;;;;;-140.72;100.00;52575.50;6244572;23;20201;-72
2023/06/01 01:43:24;;;;;;;;;;;;;;;-140.72;100.00;52555.22;6244160;23;20217;-72
2023/06/01 01:45:53;;;;;;;;;;;;;;;-140.72;100.00;52528.84;6245172;23;19911;-72
2023/06/01 01:48:25;;;;;;;;;;;;;;;-140.72;100.00;52551.16;6220702;23;19987;-72
2023/06/01 01:50:53;;;;;;;;;;;;;;;-140.72;100.00;52553.19;6219605;23;19912;-72
2023/06/01 01:53:19;;;;;;;;;;;;;;;-140.72;100.00;52585.66;6245724;23;19935;-72
2023/06/01 01:55:46;;;;;;;;;;;;;;;-140.72;100.00;52585.66;6246411;23;19911;-72
2023/06/01 01:58:12;;;;;;;;;;;;;;;-140.72;100.00;52601.91;6247108;23;19998;-72
2023/06/01 02:00:38;;;;;;;;;;;;;;;-140.72;100.00;52569.44;6217836;23;19915;-72
2023/06/01 02:03:03;;;;;;;;;;;;;;;-140.72;100.00;52597.84;6217403;23;19995;-72
2023/06/01 02:05:28;;;;;;;;;;;;;;;-140.72;100.00;52565.38;6243981;23;20057;-72
2023/06/01 02:07:54;;;;;;;;;;;;;;;-140.72;100.00;52541.03;6221770;23;19912;-72
2023/06/01 02:10:19;;;;;;;;;;;;;;;-140.72;100.00;52585.66;6244870;23;19912;-72
2023/06/01 02:12:44;;;;;;;;;;;;;;;-140.72;100.00;52577.53;6244521;23;19927;-72
2023/06/01 02:15:10;;;;;;;;;;;;;;;-140.72;100.00;52561.31;6217204;23;19930;-72
2023/06/01 02:17:37;;;;;;;;;;;;;;;-140.72;100.00;52561.31;6244237;23;19918;-72
2023/06/01 02:20:02;;;;;;;;;;;;;;;-140.72;100.00;52567.41;6244505;23;19918;-72
2023/06/01 02:22:28;;;;;;;;;;;;;;;-140.72;100.00;52545.06;6217317;23;19926;-72
2023/06/01 02:24:53;;;;;;;;;;;;;;;-140.72;100.00;52589.72;6244815;23;19911;-72
2023/06/01 02:27:18;;;;;;;;;;;;;;;-140.72;100.00;52559.28;6244595;23;19911;-72
2023/06/01 02:29:43;;;;;;;;;;;;;;;-140.72;100.00;52575.50;6216749;23;19912;-72
2023/06/01 02:32:09;;;;;;;;;;;;;;;-140.72;100.00;52571.47;6244851;23;19942;-72
2023/06/01 02:34:46;;;;;;;;;;;;;;;-140.72;100.00;52605.94;6244136;23;19911;-72
2023/06/01 02:37:11;;;;;;;;;;;;;;;-140.72;100.00;52571.47;6246376;22;19918;-72
2023/06/01 02:39:37;;;;;;;;;;;;;;;-140.72;100.00;52597.84;6245547;23;19994;-72
2023/06/01 02:42:02;;;;;;;;;;;;;;;-140.72;100.00;52610.00;6219995;23;20291;-72
2023/06/01 02:44:49;;;;;;;;;;;;;;;-140.72;100.00;52585.66;6219641;23;20028;-72
2023/06/01 02:47:30;;;;;;;;;;;;;;;-140.72;100.00;52589.72;6218342;23;19923;-72
2023/06/01 02:49:55;;;;;;;;;;;;;;;-140.72;100.00;52589.72;6219882;23;19919;-72
2023/06/01 02:52:28;;;;;;;;;;;;;;;-140.72;100.00;52595.81;6219807;23;20208;-72
2023/06/01 02:54:53;;;;;;;;;;;;;;;-140.72;100.00;52569.44;6219566;23;19923;-72
2023/06/01 02:57:18;;;;;;;;;;;;;;;-140.72;100.00;52589.72;6219187;23;20223;-72
2023/06/01 02:59:43;;;;;;;;;;;;;;;-140.72;100.00;52603.94;6219752;23;20007;-72
2023/06/01 03:02:09;;;;;;;;;;;;;;;-140.72;100.00;52585.66;6219395;23;19970;-72
2023/06/01 03:04:34;;;;;;;;;;;;;;;-140.72;100.00;52569.44;6220094;23;19919;-72
2023/06/01 03:07:01;;;;;;;;;;;;;;;-140.72;100.00;52605.94;6220997;23;20019;-72
2023/06/01 03:09:26;;;;;;;;;;;;;;;-140.72;100.00;52618.13;6219948;23;19923;-72
2023/06/01 03:11:51;;;;;;;;;;;;;;;-140.72;100.00;52569.44;6247229;23;19912;-72
2023/06/01 03:14:16;;;;;;;;;;;;;;;-140.72;100.00;52561.31;6219598;23;19912;-72
2023/06/01 03:16:42;;;;;;;;;;;;;;;-140.72;100.00;52593.78;6219811;23;19925;-72
2023/06/01 03:19:07;;;;;;;;;;;;;;;-140.72;100.00;52610.00;6221762;23;19911;-72
2023/06/01 03:21:32;;;;;;;;;;;;;;;-140.72;100.00;52581.59;6220296;23;19915;-72
2023/06/01 03:23:58;;;;;;;;;;;;;;;-140.72;100.00;52630.31;6219324;23;20054;-72
2023/06/01 03:26:24;;;;;;;;;;;;;;;-140.72;100.00;52561.31;6219679;23;19911;-72
2023/06/01 03:28:49;;;;;;;;;;;;;;;-140.72;100.00;52583.63;6219880;23;19918;-72
2023/06/01 03:31:15;;;;;;;;;;;;;;;-140.72;100.00;52597.84;6220193;23;19911;-72
2023/06/01 03:33:40;;;;;;;;;;;;;;;-140.72;100.00;52565.38;6253728;23;19927;-73
2023/06/01 03:36:06;;;;;;;;;;;;;;;-140.72;100.00;52616.09;6253545;23;19998;-72
2023/06/01 03:38:32;;;;;;;;;;;;;;;-140.72;100.00;52614.06;6223925;23;19915;-72
2023/06/01 03:40:57;;;;;;;;;;;;;;;-140.72;100.00;52589.72;6249504;23;19911;-72
2023/06/01 03:43:22;;;;;;;;;;;;;;;-140.72;100.00;52581.59;6223707;23;20037;-72
2023/06/01 03:45:47;;;;;;;;;;;;;;;-140.72;100.00;52612.03;6221799;23;20314;-72
2023/06/01 03:48:13;;;;;;;;;;;;;;;-140.72;100.00;52589.72;6248510;23;19943;-72
2023/06/01 03:50:38;;;;;;;;;;;;;;;-140.72;100.00;52597.84;6221005;23;20760;-72
2023/06/01 03:53:04;;;;;;;;;;;;;;;-140.72;100.00;52595.81;6247200;23;19954;-72
2023/06/01 03:55:30;;;;;;;;;;;;;;;-140.72;100.00;52593.78;6248406;23;19911;-72
2023/06/01 03:57:55;;;;;;;;;;;;;;;-140.72;100.00;52599.88;6221209;23;20040;-72
2023/06/01 04:00:22;;;;;;;;;;;;;;;-140.72;100.00;52601.91;6220461;23;19912;-72
2023/06/01 04:02:49;;;;;;;;;;;;;;;-140.72;100.00;52607.97;6248212;23;19911;-72
2023/06/01 04:05:17;;;;;;;;;;;;;;;-140.72;100.00;52597.84;6246371;23;19911;-73
2023/06/01 04:07:44;;;;;;;;;;;;;;;-140.72;100.00;52601.91;6219332;23;19982;-73
2023/06/01 04:10:16;;;;;;;;;;;;;;;-140.72;100.00;52624.22;6219416;23;20212;-72
2023/06/01 04:12:48;;;;;;;;;;;;;;;-140.72;100.00;52581.59;6219781;23;19938;-72
2023/06/01 04:15:15;;;;;;;;;;;;;;;-140.72;100.00;52593.78;6245962;23;19990;-72
2023/06/01 04:17:41;;;;;;;;;;;;;;;-140.72;100.00;52634.38;6246182;23;20300;-73
2023/06/01 04:20:16;;;;;;;;;;;;;;;-140.72;100.00;52545.06;6218505;23;19907;-73
2023/06/01 04:22:44;;;;;;;;;;;;;;;-140.72;100.00;52536.97;6247645;23;19911;-75
2023/06/01 04:25:11;;;;;;;;;;;;;;;-140.72;100.00;52528.84;6222843;23;19923;-76
2023/06/01 04:27:37;;;;;;;;;;;;;;;-140.72;100.00;52591.75;6221682;23;19942;-75
2023/06/01 04:30:07;;;;;;;;;;;;;;;-140.72;100.00;52597.84;6223142;23;19911;-75
2023/06/01 04:32:37;;;;;;;;;;;;;;;-140.72;100.00;52587.69;6222292;23;19935;-75
2023/06/01 04:35:05;;;;;;;;;;;;;;;-140.72;100.00;52599.88;6221793;23;20241;-74
2023/06/01 04:37:40;;;;;;;;;;;;;;;-140.72;100.00;52587.69;6220620;23;19911;-75
2023/06/01 04:40:09;;;;;;;;;;;;;;;-140.72;100.00;52601.91;6220032;23;19915;-75
2023/06/01 04:45:49;;;;;;;;;;;;;;;-140.72;100.00;52612.03;6246877;23;19934;-75
2023/06/01 04:48:16;;;;;;;;;;;;;;;-140.72;100.00;52603.94;6220815;23;19912;-74
2023/06/01 04:50:41;;;;;;;;;;;;;;;-140.72;100.00;52555.22;6222185;23;19912;-75
2023/06/01 04:53:14;;;;;;;;;;;;;;;-140.72;100.00;52605.94;6224405;23;19919;-75
2023/06/01 04:55:39;;;;;;;;;;;;;;;-140.72;100.00;52565.38;6222787;23;19980;-75
2023/06/01 04:58:41;;;;;;;;;;;;;;;-140.72;100.00;52549.13;6221216;23;20212;-76
2023/06/01 05:01:07;;;;;;;;;;;;;;;-140.72;100.00;52561.31;6222235;23;19919;-75
2023/06/01 05:03:33;;;;;;;;;;;;;;;-140.72;100.00;52551.16;6220558;23;19973;-74
2023/06/01 05:05:59;;;;;;;;;;;;;;;-140.72;100.00;52561.31;6221664;23;19955;-74
2023/06/01 05:08:24;;;;;;;;;;;;;;;-140.72;100.00;52581.59;6219960;23;19915;-73
2023/06/01 05:10:49;;;;;;;;;;;;;;;-140.72;100.00;52591.75;6218683;23;19912;-73
2023/06/01 05:13:15;;;;;;;;;;;;;;;-140.72;100.00;52599.88;6245652;23;20247;-74
2023/06/01 05:15:40;;;;;;;;;;;;;;;-140.72;100.00;52593.78;6246278;23;19937;-72
2023/06/01 05:18:05;;;;;;;;;;;;;;;-140.72;100.00;52595.81;6245235;23;19916;-72
2023/06/01 05:20:30;;;;;;;;;;;;;;;-140.72;100.00;52563.34;6218952;23;20220;-74
2023/06/01 05:22:56;;;;;;;;;;;;;;;-140.72;100.00;52553.19;6220126;23;20239;-73
2023/06/01 05:25:21;;;;;;;;;;;;;;;-140.72;100.00;52581.59;6229953;23;19970;-74
2023/06/01 05:27:46;;;;;;;;;;;;;;;-140.72;100.00;52599.88;6220555;23;20229;-74
2023/06/01 05:30:12;;;;;;;;;;;;;;;-140.72;100.00;52601.91;6222048;23;20365;-72
2023/06/01 05:32:37;;;;;;;;;;;;;;;-140.72;100.00;52516.66;6222237;23;19916;-72
2023/06/01 05:35:04;;;;;;;;;;;;;;;-140.72;100.00;52571.47;6221602;23;19916;-72
2023/06/01 05:37:29;;;;;;;;;;;;;;;-140.72;100.00;52571.47;6220308;23;19918;-72
2023/06/01 05:39:54;;;;;;;;;;;;;;;-140.72;100.00;52547.09;6220739;23;19911;-72
2023/06/01 05:42:20;;;;;;;;;;;;;;;-140.72;100.00;52569.44;6246758;23;19911;-72
2023/06/01 05:44:45;;;;;;;;;;;;;;;-140.72;100.00;52541.03;6219774;23;19919;-72
2023/06/01 05:47:10;;;;;;;;;;;;;;;-140.72;100.00;52551.16;6220026;23;19915;-73
2023/06/01 05:49:35;;;;;;;;;;;;;;;-140.72;100.00;52555.22;6221889;23;19912;-73
2023/06/01 05:52:01;;;;;;;;;;;;;;;-140.72;100.00;52555.22;6221250;23;19935;-73
2023/06/01 05:54:26;;;;;;;;;;;;;;;-140.72;100.00;52581.59;6220592;23;20283;-76
2023/06/01 05:56:51;;;;;;;;;;;;;;;-140.72;100.00;52587.69;6224285;23;20312;-74
2023/06/01 05:59:18;;;;;;;;;;;;;;;-140.72;100.00;52553.19;6226259;23;19911;-75
2023/06/01 06:01:44;;;;;;;;;;;;;;;-140.72;100.00;52569.44;6222584;23;19919;-73
2023/06/01 06:04:10;;;;;;;;;;;;;;;-140.72;100.00;52571.47;6220730;23;19950;-73
2023/06/01 06:09:48;;;;;;;;;;;;;;;-140.72;100.00;52516.66;6250517;23;19914;-73
2023/06/01 06:12:13;;;;;;;;;;;;;;;-140.72;100.00;52551.16;6250289;23;19920;-73
2023/06/01 06:14:45;;;;;;;;;;;;;;;-140.72;100.00;52549.13;6223652;23;19937;-73
2023/06/01 06:17:10;;;;;;;;;;;;;;;-140.72;100.00;52543.03;6224822;23;20192;-73
2023/06/01 06:19:36;;;;;;;;;;;;;;;-140.72;100.00;52545.06;6223988;23;19919;-73
2023/06/01 06:22:01;;;;;;;;;;;;;;;-140.72;100.00;52567.41;6223879;23;20383;-73
2023/06/01 06:24:26;;;;;;;;;;;;;;;-140.72;100.00;52514.63;6222599;23;19955;-74
2023/06/01 06:26:52;;;;;;;;;;;;;;;-140.72;100.00;52565.38;6254441;23;19930;-73
2023/06/01 06:29:17;;;;;;;;;;;;;;;-140.72;100.00;52516.66;6226036;23;19916;-73
2023/06/01 06:31:42;;;;;;;;;;;;;;;-140.72;100.00;52530.88;6223182;23;19915;-73
2023/06/01 06:34:08;;;;;;;;;;;;;;;-140.72;100.00;52528.84;6222902;23;19958;-73
2023/06/01 06:36:33;;;;;;;;;;;;;;;-140.72;100.00;52545.06;6222720;23;19912;-73
2023/06/01 06:38:59;;;;;;;;;;;;;;;-140.72;100.00;52474.06;6223590;23;19935;-73
2023/06/01 06:41:25;;;;;;;;;;;;;;;-140.72;100.00;52516.66;6222438;23;19987;-73
2023/06/01 06:43:50;;;;;;;;;;;;;;;-140.72;100.00;52524.78;6249608;23;19919;-73
2023/06/01 06:46:15;;;;;;;;;;;;;;;-140.72;100.00;52520.72;6250316;23;19997;-73
2023/06/01 06:48:40;;;;;;;;;;;;;;;-140.72;100.00;52522.75;6223077;23;19911;-73
2023/06/01 06:51:05;;;;;;;;;;;;;;;-140.72;100.00;52512.59;6250405;23;19962;-73
2023/06/01 06:53:31;;;;;;;;;;;;;;;-140.72;72.21;52510.59;6250208;23;20009;-74
2023/06/01 06:55:56;;;;;;;;;;;;;;;-140.72;42.27;52510.59;6223307;23;19969;-73
2023/06/01 06:58:21;;;;;;;;;;;;;;;-140.72;22.49;52455.78;6222962;23;19916;-73
2023/06/01 07:00:47;;;;;;;;;;;;;;;-140.72;13.83;52480.16;6223929;23;19922;-74
2023/06/01 07:03:13;;;;;;;;;;;;;;;-140.72;7.09;52492.31;6249475;23;19994;-73
2023/06/01 07:05:38;;;;;;;;;;;;;;;-140.72;3.14;52478.13;6250097;23;19911;-74
2023/06/01 07:08:04;;;;;;;;;;;;;;;-140.72;0.00;52541.03;6223664;23;19921;-73
2023/06/01 07:10:29;;;;;;;;;;;;;;;-140.72;0.00;52520.72;6225461;23;20319;-73
2023/06/01 07:12:54;;;;;;;;;;;;;;;-140.72;0.00;52514.63;6231062;23;19923;-73
2023/06/01 07:15:20;;;;;;;;;;;;;;;-140.72;0.00;52476.09;6232742;23;19939;-73
2023/06/01 07:17:45;;;;;;;;;;;;;;;-140.72;0.00;52463.91;6223097;23;20211;-74
2023/06/01 07:20:11;;;;;;;;;;;;;;;-140.72;0.00;52451.72;6223189;23;19947;-73
2023/06/01 07:22:36;;;;;;;;;;;;;;;-140.72;0.00;52488.25;6222154;23;19922;-72
2023/06/01 07:25:02;;;;;;;;;;;;;;;-140.72;0.00;52508.56;6221357;23;19919;-72
2023/06/01 07:27:28;;;;;;;;;;;;;;;-140.72;0.00;52492.31;6221292;23;19911;-72
2023/06/01 07:29:55;;;;;;;;;;;;;;;-140.72;0.00;52457.81;6221364;23;19920;-72
2023/06/01 07:32:24;;;;;;;;;;;;;;;-140.72;0.00;52451.72;6221333;23;19911;-73
2023/06/01 07:34:50;;;;;;;;;;;;;;;-140.72;0.00;52461.88;6221559;23;19918;-73
2023/06/01 07:37:15;;;;;;;;;;;;;;;-140.72;0.00;52451.72;6221406;22;19916;-72
2023/06/01 07:39:41;;;;;;;;;;;;;;;-140.72;0.00;52453.75;6248245;23;19912;-72
2023/06/01 07:42:07;;;;;;;;;;;;;;;-140.72;0.00;52445.66;6221049;23;19912;-72
2023/06/01 07:44:32;;;;;;;;;;;;;;;-140.72;0.00;52463.91;6220716;23;20190;-72
2023/06/01 07:46:58;;;;;;;;;;;;;;;-140.72;0.00;52437.53;6221088;23;19922;-72
2023/06/01 07:49:23;;;;;;;;;;;;;;;-140.72;0.00;52429.41;6247731;23;19912;-72
2023/06/01 07:51:49;;;;;;;;;;;;;;;-140.72;0.00;52476.09;6221298;23;19912;-73
2023/06/01 07:54:14;;;;;;;;;;;;;;;-140.72;0.00;52463.91;6221480;23;19912;-72
2023/06/01 07:56:39;;;;;;;;;;;;;;;-140.72;0.00;52455.78;6253747;23;20327;-72
2023/06/01 07:59:05;;;;;;;;;;;;;;;-140.72;0.00;52409.13;6220818;23;19965;-73
2023/06/01 08:01:30;;;;;;;;;;;;;;;-140.72;0.00;52435.50;6220310;23;19911;-72
2023/06/01 08:03:59;;;;;;;;;;;;;;;-140.72;0.00;52449.72;6220815;23;19982;-72
2023/06/01 08:06:24;;;;;;;;;;;;;;;-140.72;0.00;52425.34;6221024;23;19911;-72
2023/06/01 08:08:51;;;;;;;;;;;;;;;-140.72;0.00;52463.91;6220844;23;20394;-72
2023/06/01 08:11:16;;;;;;;;;;;;;;;-140.72;0.00;52439.56;6221097;23;19912;-72
2023/06/01 08:13:41;;;;;;;;;;;;;;;-140.72;0.00;52435.50;6220491;23;20050;-73
2023/06/01 08:16:07;;;;;;;;;;;;;;;-140.72;0.00;52403.03;6220124;23;19985;-73
2023/06/01 08:18:32;;;;;;;;;;;;;;;-140.72;0.00;52447.69;6220093;23;19955;-73
2023/06/01 08:21:00;;;;;;;;;;;;;;;-140.72;0.00;52457.81;6220379;23;20288;-72
2023/06/01 08:23:25;;;;;;;;;;;;;;;-140.72;0.00;52467.97;6248359;23;19938;-73
2023/06/01 08:25:50;;;;;;;;;;;;;;;-140.72;0.00;52465.94;6220371;23;19911;-72
2023/06/01 08:28:16;;;;;;;;;;;;;;;-140.72;0.00;52429.41;6247753;23;20030;-72
2023/06/01 08:30:41;;;;;;;;;;;;;;;-140.72;0.00;52423.31;6218925;23;19912;-73
2023/06/01 08:33:06;;;;;;;;;;;;;;;-140.72;0.00;52411.16;6219394;23;19912;-72
2023/06/01 08:35:33;;;;;;;;;;;;;;;-140.72;0.00;52421.28;6218929;23;19916;-73
2023/06/01 08:37:59;;;;;;;;;;;;;;;-140.72;0.00;52378.69;6246608;22;20362;-72
2023/06/01 08:40:24;;;;;;;;;;;;;;;-140.72;0.00;52413.19;6220277;23;20351;-72
2023/06/01 08:42:53;;;;;;;;;;;;;;;-140.72;0.00;52405.06;6220554;23;19911;-72
2023/06/01 08:45:18;;;;;;;;;;;;;;;-140.72;0.00;52403.03;6219198;23;20304;-72
2023/06/01 08:47:45;;;;;;;;;;;;;;;-140.72;0.00;52392.88;6219334;23;19918;-73
2023/06/01 08:50:11;;;;;;;;;;;;;;;-140.72;0.00;52350.28;6246810;23;19918;-73
2023/06/01 08:52:37;;;;;;;;;;;;;;;-140.72;0.00;52421.28;6221281;23;19943;-73
2023/06/01 08:55:03;;;;;;;;;;;;;;;-140.72;0.00;52386.81;6221449;23;19916;-72
2023/06/01 08:57:31;;;;;;;;;;;;;;;-140.72;0.00;52370.56;6248053;23;19977;-72
2023/06/01 08:59:57;;;;;;;;;;;;;;;-140.72;0.00;52382.75;6225462;23;19965;-72
2023/06/01 09:02:23;;;;;;;;;;;;;;;-140.72;0.00;52394.91;6221307;23;20316;-72
2023/06/01 09:04:49;;;;;;;;;;;;;;;-140.72;0.00;52370.56;6219481;23;19919;-72
2023/06/01 09:07:14;;;;;;;;;;;;;;;-140.72;0.00;52334.03;6221213;23;19916;-72
2023/06/01 09:09:39;;;;;;;;;;;;;;;-140.72;0.00;52309.69;6220187;23;20354;-72
2023/06/01 09:12:25;;;;;;;;;;;;;;;-140.72;0.00;52384.78;6219611;23;19923;-72
2023/06/01 09:14:51;;;;;;;;;;;;;;;-140.72;0.00;52370.56;6219780;23;19994;-72
2023/06/01 09:17:23;;;;;;;;;;;;;;;-140.72;0.00;52342.16;6220727;23;20280;-72
2023/06/01 09:19:50;;;;;;;;;;;;;;;-140.72;0.00;52390.84;6221332;23;19918;-72
2023/06/01 09:22:15;;;;;;;;;;;;;;;-140.72;0.00;52344.19;6248102;23;19938;-72
2023/06/01 09:24:54;;;;;;;;;;;;;;;-140.72;0.00;52356.38;6221605;23;19912;-72
2023/06/01 09:27:19;;;;;;;;;;;;;;;-140.72;0.00;52291.44;6223752;23;20320;-73
2023/06/01 09:29:52;;;;;;;;;;;;;;;-140.72;0.00;52289.41;6248918;23;19965;-73
2023/06/01 09:32:19;;;;;;;;;;;;;;;-140.72;0.00;52281.28;6222489;23;20483;-72
2023/06/01 09:34:45;;;;;;;;;;;;;;;-140.72;0.00;52220.41;6249133;23;19912;-73
2023/06/01 09:37:11;;;;;;;;;;;;;;;-140.72;0.00;52214.34;6220287;22;19982;-73
2023/06/01 09:39:36;;;;;;;;;;;;;;;-140.72;0.00;52222.44;6245952;23;19962;-73
2023/06/01 09:42:06;;;;;;;;;;;;;;;-140.72;0.00;52254.91;6219257;23;19911;-73
2023/06/01 09:44:31;;;;;;;;;;;;;;;-140.72;0.00;52220.41;6218191;23;20332;-73
2023/06/01 09:46:59;;;;;;;;;;;;;;;-140.72;0.00;52177.81;6218185;23;19912;-73
2023/06/01 09:49:26;;;;;;;;;;;;;;;-140.72;0.00;52153.47;6245520;23;19912;-73
2023/06/01 09:51:52;;;;;;;;;;;;;;;-140.72;0.00;52155.50;6220238;23;19911;-73
2023/06/01 09:54:21;;;;;;;;;;;;;;;-140.72;0.00;52149.41;6245775;23;20354;-73
2023/06/01 09:56:46;;;;;;;;;;;;;;;-140.72;0.00;52153.47;6218583;23;19977;-73
2023/06/01 09:59:12;;;;;;;;;;;;;;;-140.72;0.00;52163.59;6218250;23;20331;-73
2023/06/01 10:01:37;;;;;;;;;;;;;;;-140.72;0.00;52171.72;6220219;23;19990;-73
2023/06/01 10:04:04;;;;;;;;;;;;;;;-140.72;0.00;52110.84;6219871;23;20498;-73
2023/06/01 10:06:31;;;;;;;;;;;;;;;-140.72;0.00;52177.81;6219723;23;19926;-73
2023/06/01 10:08:56;;;;;;;;;;;;;;;-140.72;0.00;52210.28;6220462;23;20277;-73
2023/06/01 10:11:22;;;;;;;;;;;;;;;-140.72;0.00;52147.38;6221483;23;19960;-73
2023/06/01 10:13:48;;;;;;;;;;;;;;;-140.72;0.00;52147.38;6219861;23;20350;-73
2023/06/01 10:16:13;;;;;;;;;;;;;;;-140.72;0.00;52056.06;6219764;23;19919;-74
2023/06/01 10:18:39;;;;;;;;;;;;;;;-140.72;0.00;52110.84;6220391;23;20336;-73
2023/06/01 10:21:06;;;;;;;;;;;;;;;-140.72;0.00;52096.66;6219090;23;19961;-74
2023/06/01 10:23:31;;;;;;;;;;;;;;;-140.72;0.00;52084.47;6218547;23;19912;-73
2023/06/01 10:25:57;;;;;;;;;;;;;;;-140.72;0.00;52084.47;6245551;23;19961;-74
2023/06/01 10:28:23;;;;;;;;;;;;;;;-140.72;0.00;52066.22;6219821;23;20049;-73
2023/06/01 10:31:09;;;;;;;;;;;;;;;-140.72;0.00;52062.16;6219452;23;19947;-73
2023/06/01 10:34:00;;;;;;;;;;;;;;;-140.72;0.00;52037.81;6219718;23;19986;-73
2023/06/01 10:36:45;;;;;;;;;;;;;;;-140.72;0.00;52066.22;6212517;23;20350;-74
2023/06/01 10:39:26;;;;;;;;;;;;;;;-140.72;0.00;52047.97;6218202;23;19939;-74
2023/06/01 10:41:52;;;;;;;;;;;;;;;-140.72;0.00;52013.47;6218356;23;19912;-73
2023/06/01 10:44:35;;;;;;;;;;;;;;;-140.72;0.00;52041.88;6223318;23;19927;-73
2023/06/01 10:47:01;;;;;;;;;;;;;;;-140.72;0.00;51972.88;6223353;23;19912;-73
2023/06/01 10:49:46;;;;;;;;;;;;;;;-140.72;0.00;52009.41;6222978;23;19921;-73
2023/06/01 10:52:23;;;;;;;;;;;;;;;-140.72;0.00;51964.78;6219447;23;19939;-74
2023/06/01 10:54:49;;;;;;;;;;;;;;;-140.72;0.00;51936.38;6220741;23;19911;-74
2023/06/01 10:57:20;;;;;;;;;;;;;;;-140.72;0.00;51954.63;6221213;23;19911;-73
2023/06/01 11:00:05;;;;;;;;;;;;;;;-140.72;0.00;52049.97;6221452;23;19919;-73
2023/06/01 11:02:30;;;;;;;;;;;;;;;-140.72;0.00;51966.81;6247863;23;19912;-73
2023/06/01 11:04:56;;;;;;;;;;;;;;;-140.72;0.00;51976.94;6221223;23;20300;-72
2023/06/01 11:07:38;;;;;;;;;;;;;;;-140.72;0.00;51940.41;6222463;23;19974;-71
2023/06/01 11:10:04;;;;;;;;;;;;;;;-140.72;0.00;51905.94;6222030;23;19919;-71
2023/06/01 11:12:51;;;;;;;;;;;;;;;-140.72;0.00;51863.31;6221993;23;19911;-72
2023/06/01 11:15:18;;;;;;;;;;;;;;;-140.72;0.00;51883.63;6248511;23;19922;-72
2023/06/01 11:17:43;;;;;;;;;;;;;;;-140.72;0.00;51948.53;6220828;23;19991;-72
2023/06/01 11:20:11;;;;;;;;;;;;;;;-140.72;0.00;51895.78;6221700;23;19919;-72
2023/06/01 11:22:37;;;;;;;;;;;;;;;-140.72;0.00;51940.41;6220759;23;19993;-72
2023/06/01 11:25:07;;;;;;;;;;;;;;;-140.72;0.00;51932.31;6220352;23;20065;-72
2023/06/01 11:27:33;;;;;;;;;;;;;;;-140.72;0.00;51934.34;6222178;23;19998;-72
2023/06/01 11:29:58;;;;;;;;;;;;;;;-140.72;0.00;51916.06;6249884;23;19919;-71
2023/06/01 11:32:26;;;;;;;;;;;;;;;-140.72;0.00;51875.50;6221262;23;19961;-72
2023/06/01 11:34:53;;;;;;;;;;;;;;;-140.72;0.00;51903.91;6220457;23;20239;-73
2023/06/01 11:37:19;;;;;;;;;;;;;;;-140.72;0.00;51877.53;6220569;22;20010;-73
2023/06/01 11:39:46;;;;;;;;;;;;;;;-140.72;0.00;51905.94;6221973;23;19912;-72
2023/06/01 11:42:11;;;;;;;;;;;;;;;-140.72;0.00;51907.97;6222444;23;19911;-72
2023/06/01 11:44:38;;;;;;;;;;;;;;;-140.72;0.00;51855.22;6221238;23;19911;-73
2023/06/01 11:47:04;;;;;;;;;;;;;;;-140.72;0.00;51867.38;6220141;23;19915;-72
2023/06/01 11:49:29;;;;;;;;;;;;;;;-140.72;0.00;51889.69;6221395;23;19957;-73
2023/06/01 11:51:58;;;;;;;;;;;;;;;-140.72;0.00;51895.78;6221116;23;20251;-72
2023/06/01 11:54:26;;;;;;;;;;;;;;;-140.72;0.00;51910.00;6219815;23;19916;-72
2023/06/01 11:56:51;;;;;;;;;;;;;;;-140.72;0.00;51830.88;6221397;23;19918;-72
2023/06/01 11:59:17;;;;;;;;;;;;;;;-140.72;0.00;51849.13;6220925;23;19912;-73
2023/06/01 12:01:44;;;;;;;;;;;;;;;-140.72;0.00;51869.41;6247986;23;19916;-72
2023/06/01 12:04:16;;;;;;;;;;;;;;;-140.72;0.00;51859.28;6219946;23;20354;-72
2023/06/01 12:06:42;;;;;;;;;;;;;;;-140.72;0.00;51834.91;6220224;23;19911;-72
2023/06/01 12:09:08;;;;;;;;;;;;;;;-140.72;0.00;51920.13;6220315;23;19912;-72
2023/06/01 12:11:34;;;;;;;;;;;;;;;-140.72;0.00;51871.44;6246967;23;19965;-72
2023/06/01 12:13:59;;;;;;;;;;;;;;;-140.72;0.00;51847.09;6221191;23;20248;-72
2023/06/01 12:16:27;;;;;;;;;;;;;;;-140.72;0.00;51802.47;6218459;23;20031;-72
2023/06/01 12:18:54;;;;;;;;;;;;;;;-140.72;0.00;51828.84;6218801;23;19939;-72
2023/06/01 12:21:19;;;;;;;;;;;;;;;-140.72;0.00;51867.38;6245440;23;19987;-72
2023/06/01 12:23:51;;;;;;;;;;;;;;;-140.72;0.00;51849.13;6218762;23;19942;-72
2023/06/01 12:26:16;;;;;;;;;;;;;;;-140.72;0.00;51841.00;6218590;23;19916;-72
2023/06/01 12:28:55;;;;;;;;;;;;;;;-140.72;0.00;51895.78;6218985;23;19922;-73
2023/06/01 12:31:21;;;;;;;;;;;;;;;-140.72;0.00;51895.78;6219802;23;19923;-72
2023/06/01 12:33:48;;;;;;;;;;;;;;;-140.72;0.00;51905.94;6230827;23;19912;-73